NCAR-RAP Real-Time Weather Data

Output produced by METARs form (10 April 2020  05:36 UTC)
found at http://weather.rap.ucar.edu/surface/
 
KMCE 100453Z AUTO 00000KT 10SM FEW120 13/09 A3006 RMK AO2 SLP178 T01330089
KMCE 100353Z AUTO 11003KT 10SM CLR 12/09 A3005 RMK AO2 SLP174 T01170094
KMCE 100253Z AUTO 13003KT 10SM CLR 12/09 A3003 RMK AO2 SLP170 T01220094 51004
KMCE 100153Z AUTO 16006KT 10SM CLR 14/09 A3003 RMK AO2 SLP168 T01390094
KMCE 100053Z AUTO 16007KT 10SM SCT049 15/09 A3003 RMK AO2 SLP167 T01500094
KMCE 092353Z AUTO 15007KT 10SM OVC044 16/09 A3002 RMK AO2 SLP165 T01560089 10167 20128 56012
KMCE 092253Z AUTO 14008KT 10SM FEW029 OVC043 16/09 A3003 RMK AO2 SLP168 T01610094
KMCE 092200Z AUTO 14008KT 10SM FEW021 SCT027 OVC039 16/10 A3004 RMK AO2 T01560100
KMCE 092153Z AUTO 14010KT 10SM SCT021 BKN027 OVC039 15/09 A3004 RMK AO2 SLP172 T01500094
KMCE 092053Z AUTO 15011G16KT 10SM SCT030 OVC035 14/09 A3006 RMK AO2 SLP178 T01440094 58004
KMCE 092045Z AUTO 15011KT 10SM FEW019 SCT025 OVC035 14/09 A3006 RMK AO2 T01440094
KMCE 092031Z AUTO 15012KT 10SM FEW021 BKN029 OVC035 13/09 A3005 RMK AO2 T01330094
KMCE 091953Z AUTO 15012KT 10SM FEW019 BKN030 OVC035 14/09 A3006 RMK AO2 SLP179 T01440089
KMCE 091936Z AUTO 17015G20KT 10SM FEW020 SCT025 OVC035 14/09 A3006 RMK AO2 T01440089
KMCE 091853Z AUTO 16014G21KT 10SM BKN018 BKN025 OVC031 13/09 A3007 RMK AO2 SLP182 T01280089
KMCE 091753Z AUTO 14014G23KT 10SM OVC017 12/09 A3007 RMK AO2 SLP182 60001 T01220089 10122 20100 51007
KMCE 091730Z AUTO 14014KT 10SM BKN015 OVC021 11/08 A3007 RMK AO2 T01110083
KMCE 091653Z AUTO 13012KT 10SM SCT010 OVC014 11/09 A3007 RMK AO2 SLP181 T01110089
KMCE 091641Z AUTO 13010KT 10SM SCT009 OVC014 11/09 A3006 RMK AO2 T01060094
KMCE 091623Z AUTO 12011KT 3SM BR BKN008 OVC015 10/09 A3006 RMK AO2 T01000089
KMCE 091620Z AUTO 12013KT 2 1/2SM BR SCT008 OVC011 10/09 A3006 RMK AO2 T01000089
KMCE 091600Z AUTO 12011KT 3SM BR BKN008 OVC013 10/09 A3006 RMK AO2 T01000089
KMCE 091553Z AUTO 13014KT 2 1/2SM BR SCT008 OVC011 10/09 A3005 RMK AO2 SLP176 T01000089
KMCE 091453Z AUTO 13011KT 10SM OVC014 10/08 A3005 RMK AO2 SLP175 60001 T01000083 51016
KMCE 091353Z AUTO 12012KT 10SM OVC012 10/08 A3004 RMK AO2 SLP172 T01000083
KMCE 091333Z AUTO 13010KT 5SM BR OVC011 10/08 A3003 RMK AO2 T01000083
KMCE 091253Z AUTO 12010KT 4SM BR OVC009 10/09 A3002 RMK AO2 RAE01 SLP166 P0001 T01000089
KMCE 091153Z AUTO 12009KT 6SM -RA BR OVC007 10/09 A3000 RMK AO2 CIG 004V011 SLP159 P0000 60005 70005 T01000089 10122 20100 54000
KMCE 091134Z AUTO 12006KT 5SM -RA BR BKN007 OVC011 10/09 A3000 RMK AO2 CIG 004V008 P0000 T01000094
KMCE 091124Z AUTO 12007KT 6SM -RA BR OVC010 10/09 A3000 RMK AO2 CIG 006V012 P0000 T01000089
KMCE 091113Z AUTO 12009KT 7SM -RA BKN008 OVC012 10/09 A3000 RMK AO2 CIG 006V011 P0000 T01000089
KMCE 091104Z AUTO 12008KT 8SM -RA OVC010 10/09 A3000 RMK AO2 CIG 006V014 P0000 T01000089
KMCE 091053Z AUTO 12006KT 7SM -RA BKN008 OVC012 10/09 A3000 RMK AO2 RAB04E14B31 CIG 006V011 SLP159 P0001 T01000089
KMCE 091030Z AUTO 12010KT 7SM BKN007 OVC014 10/09 A3000 RMK AO2 RAB04E14 CIG 005V010 P0001 T01000089
KMCE 090953Z AUTO 12009KT 4SM BR SCT007 BKN012 OVC018 10/09 A3000 RMK AO2 RAE35 SLP160 P0001 T01000089
KMCE 090943Z AUTO 12008KT 4SM BR FEW007 OVC012 10/09 A3000 RMK AO2 RAE35 P0001 T01000089
KMCE 090853Z AUTO 14008KT 5SM -RA BR OVC011 11/09 A3000 RMK AO2 RAB36 SLP159 P0001 60003 T01060089 53012